West Chenango, New York
Current Conditions -  °F | °C
As of 5:53 PM on Thursday 23 Oct 2014 (Local Time) from KBGM Reporting Station
Light Rain Light Rain  
Wind Chill: 40°   Ceiling: 1500
Heat Index: 46°   Visibility: 7mi
Dew Point: 42°   Wind: 15mph
Humidity: 86%   Direction: 340°NNW
Pressure: 29.88"   Gusts: NA
Location:  42.1759°N, 75.9402°W
Report Text: KBGM 232153Z 34013KT 7SM -RA OVC015 08/06 A2988 RMK AO2 SLP125 P0000 T00780056
Loading
Personal Weather Stations






























Interactive Weather Map
Tropical Storm Tracking
New forecast layout! Learn more

10-Day Weather Forecast

Advertisements
Track Severe Weather on mobile